sensor_id;sensor_type;location;lat;lon;timestamp;P1;durP1;ratioP1;P2;durP2;ratioP2
67162;SDS011;54092;53.088;8.850;2023-05-10T00:01:03;5.93;;;3.33;;
67162;SDS011;54092;53.088;8.850;2023-05-10T00:03:28;7.75;;;3.58;;
67162;SDS011;54092;53.088;8.850;2023-05-10T00:05:54;8.65;;;3.28;;
67162;SDS011;54092;53.088;8.850;2023-05-10T00:08:19;6.57;;;3.47;;
67162;SDS011;54092;53.088;8.850;2023-05-10T00:10:45;7.10;;;2.80;;
67162;SDS011;54092;53.088;8.850;2023-05-10T00:13:10;5.22;;;3.10;;
67162;SDS011;54092;53.088;8.850;2023-05-10T00:15:36;5.95;;;3.15;;
67162;SDS011;54092;53.088;8.850;2023-05-10T00:18:01;7.30;;;3.30;;
67162;SDS011;54092;53.088;8.850;2023-05-10T00:20:27;6.45;;;2.90;;
67162;SDS011;54092;53.088;8.850;2023-05-10T00:22:52;5.18;;;2.88;;
67162;SDS011;54092;53.088;8.850;2023-05-10T00:25:18;5.43;;;2.95;;
67162;SDS011;54092;53.088;8.850;2023-05-10T00:27:44;5.85;;;3.38;;
67162;SDS011;54092;53.088;8.850;2023-05-10T00:30:09;5.55;;;3.10;;
67162;SDS011;54092;53.088;8.850;2023-05-10T00:32:35;5.75;;;3.03;;
67162;SDS011;54092;53.088;8.850;2023-05-10T00:35:00;6.03;;;3.08;;
67162;SDS011;54092;53.088;8.850;2023-05-10T00:37:26;8.52;;;3.40;;
67162;SDS011;54092;53.088;8.850;2023-05-10T00:39:51;11.10;;;3.38;;
67162;SDS011;54092;53.088;8.850;2023-05-10T00:42:17;7.25;;;3.42;;
67162;SDS011;54092;53.088;8.850;2023-05-10T00:44:42;7.65;;;3.65;;
67162;SDS011;54092;53.088;8.850;2023-05-10T00:47:08;5.68;;;3.22;;
67162;SDS011;54092;53.088;8.850;2023-05-10T00:49:34;5.38;;;3.13;;
67162;SDS011;54092;53.088;8.850;2023-05-10T00:52:00;9.82;;;3.40;;
67162;SDS011;54092;53.088;8.850;2023-05-10T00:54:27;7.03;;;3.40;;
67162;SDS011;54092;53.088;8.850;2023-05-10T00:56:52;6.68;;;3.40;;
67162;SDS011;54092;53.088;8.850;2023-05-10T00:59:18;6.45;;;3.00;;
67162;SDS011;54092;53.088;8.850;2023-05-10T01:01:44;7.15;;;3.28;;
67162;SDS011;54092;53.088;8.850;2023-05-10T01:04:11;5.40;;;3.17;;
67162;SDS011;54092;53.088;8.850;2023-05-10T01:06:38;6.38;;;3.17;;
67162;SDS011;54092;53.088;8.850;2023-05-10T01:09:07;5.63;;;3.13;;
67162;SDS011;54092;53.088;8.850;2023-05-10T01:11:33;5.72;;;3.00;;
67162;SDS011;54092;53.088;8.850;2023-05-10T01:14:01;6.57;;;3.23;;
67162;SDS011;54092;53.088;8.850;2023-05-10T01:16:27;6.05;;;3.40;;
67162;SDS011;54092;53.088;8.850;2023-05-10T01:18:59;5.20;;;3.22;;
67162;SDS011;54092;53.088;8.850;2023-05-10T01:30:28;6.90;;;3.10;;
67162;SDS011;54092;53.088;8.850;2023-05-10T01:36:08;5.72;;;3.13;;
67162;SDS011;54092;53.088;8.850;2023-05-10T01:39:09;7.18;;;3.78;;
67162;SDS011;54092;53.088;8.850;2023-05-10T01:42:01;7.63;;;3.17;;
67162;SDS011;54092;53.088;8.850;2023-05-10T01:44:40;6.90;;;3.22;;
67162;SDS011;54092;53.088;8.850;2023-05-10T01:47:10;5.63;;;3.30;;
67162;SDS011;54092;53.088;8.850;2023-05-10T01:49:39;5.78;;;3.35;;
67162;SDS011;54092;53.088;8.850;2023-05-10T01:52:09;5.68;;;3.25;;
67162;SDS011;54092;53.088;8.850;2023-05-10T01:54:41;9.73;;;3.57;;
67162;SDS011;54092;53.088;8.850;2023-05-10T01:57:13;7.20;;;4.18;;
67162;SDS011;54092;53.088;8.850;2023-05-10T01:59:41;5.43;;;3.10;;
67162;SDS011;54092;53.088;8.850;2023-05-10T02:02:10;9.93;;;3.83;;
67162;SDS011;54092;53.088;8.850;2023-05-10T02:04:37;6.72;;;3.70;;
67162;SDS011;54092;53.088;8.850;2023-05-10T02:07:04;6.63;;;3.53;;
67162;SDS011;54092;53.088;8.850;2023-05-10T02:09:32;7.28;;;3.50;;
67162;SDS011;54092;53.088;8.850;2023-05-10T02:11:59;6.95;;;3.30;;
67162;SDS011;54092;53.088;8.850;2023-05-10T02:14:27;6.45;;;3.22;;
67162;SDS011;54092;53.088;8.850;2023-05-10T02:19:23;7.90;;;3.58;;
67162;SDS011;54092;53.088;8.850;2023-05-10T02:21:49;6.93;;;3.58;;
67162;SDS011;54092;53.088;8.850;2023-05-10T02:24:16;6.65;;;3.28;;
67162;SDS011;54092;53.088;8.850;2023-05-10T02:26:44;7.55;;;3.97;;
67162;SDS011;54092;53.088;8.850;2023-05-10T02:29:11;6.85;;;4.05;;
67162;SDS011;54092;53.088;8.850;2023-05-10T02:31:38;7.35;;;3.90;;
67162;SDS011;54092;53.088;8.850;2023-05-10T02:34:05;9.18;;;3.53;;
67162;SDS011;54092;53.088;8.850;2023-05-10T02:36:32;8.73;;;3.70;;
67162;SDS011;54092;53.088;8.850;2023-05-10T02:38:58;8.48;;;3.63;;
67162;SDS011;54092;53.088;8.850;2023-05-10T02:41:26;6.05;;;3.78;;
67162;SDS011;54092;53.088;8.850;2023-05-10T02:43:54;5.38;;;3.40;;
67162;SDS011;54092;53.088;8.850;2023-05-10T02:46:24;9.00;;;3.58;;
67162;SDS011;54092;53.088;8.850;2023-05-10T02:48:49;9.57;;;3.47;;
67162;SDS011;54092;53.088;8.850;2023-05-10T02:51:15;7.20;;;4.00;;
67162;SDS011;54092;53.088;8.850;2023-05-10T02:53:43;8.38;;;3.60;;
67162;SDS011;54092;53.088;8.850;2023-05-10T02:56:12;6.25;;;3.63;;
67162;SDS011;54092;53.088;8.850;2023-05-10T02:58:43;5.95;;;3.40;;
67162;SDS011;54092;53.088;8.850;2023-05-10T03:01:08;8.07;;;3.60;;
67162;SDS011;54092;53.088;8.850;2023-05-10T03:03:34;7.60;;;4.00;;
67162;SDS011;54092;53.088;8.850;2023-05-10T03:06:00;6.30;;;3.85;;
67162;SDS011;54092;53.088;8.850;2023-05-10T03:08:25;8.63;;;4.15;;
67162;SDS011;54092;53.088;8.850;2023-05-10T03:11:43;9.25;;;3.85;;
67162;SDS011;54092;53.088;8.850;2023-05-10T03:14:39;6.95;;;3.80;;
67162;SDS011;54092;53.088;8.850;2023-05-10T03:16:56;7.47;;;3.25;;
67162;SDS011;54092;53.088;8.850;2023-05-10T03:19:32;8.15;;;3.60;;
67162;SDS011;54092;53.088;8.850;2023-05-10T03:22:16;7.88;;;3.83;;
67162;SDS011;54092;53.088;8.850;2023-05-10T03:24:55;6.28;;;4.00;;
67162;SDS011;54092;53.088;8.850;2023-05-10T03:27:23;7.50;;;3.75;;
67162;SDS011;54092;53.088;8.850;2023-05-10T03:29:50;8.23;;;3.78;;
67162;SDS011;54092;53.088;8.850;2023-05-10T03:32:17;7.15;;;4.13;;
67162;SDS011;54092;53.088;8.850;2023-05-10T03:34:43;6.32;;;3.92;;
67162;SDS011;54092;53.088;8.850;2023-05-10T03:37:09;6.03;;;3.53;;
67162;SDS011;54092;53.088;8.850;2023-05-10T03:39:34;7.38;;;4.05;;
67162;SDS011;54092;53.088;8.850;2023-05-10T03:42:00;8.05;;;3.97;;
67162;SDS011;54092;53.088;8.850;2023-05-10T03:44:25;7.00;;;3.80;;
67162;SDS011;54092;53.088;8.850;2023-05-10T03:46:51;9.10;;;3.88;;
67162;SDS011;54092;53.088;8.850;2023-05-10T03:49:16;7.80;;;3.67;;
67162;SDS011;54092;53.088;8.850;2023-05-10T03:51:42;6.72;;;4.30;;
67162;SDS011;54092;53.088;8.850;2023-05-10T03:54:07;7.60;;;3.95;;
67162;SDS011;54092;53.088;8.850;2023-05-10T03:56:33;8.05;;;3.60;;
67162;SDS011;54092;53.088;8.850;2023-05-10T03:58:58;8.98;;;4.40;;
67162;SDS011;54092;53.088;8.850;2023-05-10T04:01:24;10.30;;;4.28;;
67162;SDS011;54092;53.088;8.850;2023-05-10T04:03:49;8.77;;;4.40;;
67162;SDS011;54092;53.088;8.850;2023-05-10T04:06:15;11.75;;;4.80;;
67162;SDS011;54092;53.088;8.850;2023-05-10T04:08:40;7.85;;;3.97;;
67162;SDS011;54092;53.088;8.850;2023-05-10T04:11:06;8.75;;;4.93;;
67162;SDS011;54092;53.088;8.850;2023-05-10T04:13:32;8.52;;;4.50;;
67162;SDS011;54092;53.088;8.850;2023-05-10T04:15:58;8.02;;;4.90;;
67162;SDS011;54092;53.088;8.850;2023-05-10T04:18:24;8.50;;;4.80;;
67162;SDS011;54092;53.088;8.850;2023-05-10T04:20:49;8.02;;;4.53;;
67162;SDS011;54092;53.088;8.850;2023-05-10T04:23:15;9.32;;;4.90;;
67162;SDS011;54092;53.088;8.850;2023-05-10T04:25:41;8.02;;;4.90;;
67162;SDS011;54092;53.088;8.850;2023-05-10T04:28:07;6.95;;;4.30;;
67162;SDS011;54092;53.088;8.850;2023-05-10T04:30:32;8.88;;;4.70;;
67162;SDS011;54092;53.088;8.850;2023-05-10T04:32:58;9.07;;;5.03;;
67162;SDS011;54092;53.088;8.850;2023-05-10T04:35:23;7.85;;;4.82;;
67162;SDS011;54092;53.088;8.850;2023-05-10T04:37:49;8.63;;;5.20;;
67162;SDS011;54092;53.088;8.850;2023-05-10T04:40:15;7.93;;;5.00;;
67162;SDS011;54092;53.088;8.850;2023-05-10T04:42:40;7.47;;;4.93;;
67162;SDS011;54092;53.088;8.850;2023-05-10T04:45:06;9.57;;;5.28;;
67162;SDS011;54092;53.088;8.850;2023-05-10T04:47:32;7.82;;;4.95;;
67162;SDS011;54092;53.088;8.850;2023-05-10T04:49:58;8.98;;;5.10;;
67162;SDS011;54092;53.088;8.850;2023-05-10T04:52:23;11.20;;;5.38;;
67162;SDS011;54092;53.088;8.850;2023-05-10T04:54:49;8.57;;;5.65;;
67162;SDS011;54092;53.088;8.850;2023-05-10T04:57:15;8.32;;;5.53;;
67162;SDS011;54092;53.088;8.850;2023-05-10T04:59:41;10.93;;;5.75;;
67162;SDS011;54092;53.088;8.850;2023-05-10T05:02:07;10.10;;;5.38;;
67162;SDS011;54092;53.088;8.850;2023-05-10T05:04:32;12.88;;;5.72;;
67162;SDS011;54092;53.088;8.850;2023-05-10T05:06:58;8.93;;;5.88;;
67162;SDS011;54092;53.088;8.850;2023-05-10T05:09:24;9.50;;;6.05;;
67162;SDS011;54092;53.088;8.850;2023-05-10T05:11:49;9.52;;;5.97;;
67162;SDS011;54092;53.088;8.850;2023-05-10T05:14:15;10.10;;;6.03;;
67162;SDS011;54092;53.088;8.850;2023-05-10T05:16:40;9.40;;;6.18;;
67162;SDS011;54092;53.088;8.850;2023-05-10T05:19:06;12.27;;;6.53;;
67162;SDS011;54092;53.088;8.850;2023-05-10T05:21:31;11.63;;;6.47;;
67162;SDS011;54092;53.088;8.850;2023-05-10T05:23:57;11.95;;;6.50;;
67162;SDS011;54092;53.088;8.850;2023-05-10T05:26:23;10.88;;;6.05;;
67162;SDS011;54092;53.088;8.850;2023-05-10T05:28:48;12.32;;;6.20;;
67162;SDS011;54092;53.088;8.850;2023-05-10T05:31:16;10.13;;;6.22;;
67162;SDS011;54092;53.088;8.850;2023-05-10T05:33:42;12.20;;;6.97;;
67162;SDS011;54092;53.088;8.850;2023-05-10T05:36:08;10.40;;;5.88;;
67162;SDS011;54092;53.088;8.850;2023-05-10T05:38:34;11.20;;;6.90;;
67162;SDS011;54092;53.088;8.850;2023-05-10T05:40:59;10.10;;;6.80;;
67162;SDS011;54092;53.088;8.850;2023-05-10T05:43:25;11.50;;;6.63;;
67162;SDS011;54092;53.088;8.850;2023-05-10T05:45:52;12.02;;;6.70;;
67162;SDS011;54092;53.088;8.850;2023-05-10T05:48:18;11.35;;;6.40;;
67162;SDS011;54092;53.088;8.850;2023-05-10T05:50:44;13.75;;;6.45;;
67162;SDS011;54092;53.088;8.850;2023-05-10T05:53:10;11.45;;;6.88;;
67162;SDS011;54092;53.088;8.850;2023-05-10T05:55:36;12.55;;;6.90;;
67162;SDS011;54092;53.088;8.850;2023-05-10T05:58:01;11.70;;;7.18;;
67162;SDS011;54092;53.088;8.850;2023-05-10T06:00:27;14.35;;;7.25;;
67162;SDS011;54092;53.088;8.850;2023-05-10T06:02:53;12.27;;;7.30;;
67162;SDS011;54092;53.088;8.850;2023-05-10T06:05:22;17.90;;;7.93;;
67162;SDS011;54092;53.088;8.850;2023-05-10T06:07:47;15.68;;;7.32;;
67162;SDS011;54092;53.088;8.850;2023-05-10T06:10:13;11.63;;;7.18;;
67162;SDS011;54092;53.088;8.850;2023-05-10T06:12:38;16.25;;;7.97;;
67162;SDS011;54092;53.088;8.850;2023-05-10T06:15:04;13.70;;;8.27;;
67162;SDS011;54092;53.088;8.850;2023-05-10T06:17:30;12.43;;;7.72;;
67162;SDS011;54092;53.088;8.850;2023-05-10T06:19:55;16.70;;;7.72;;
67162;SDS011;54092;53.088;8.850;2023-05-10T06:22:21;15.00;;;7.53;;
67162;SDS011;54092;53.088;8.850;2023-05-10T06:24:47;17.10;;;8.77;;
67162;SDS011;54092;53.088;8.850;2023-05-10T06:27:13;15.13;;;8.23;;
67162;SDS011;54092;53.088;8.850;2023-05-10T06:29:39;16.23;;;8.52;;
67162;SDS011;54092;53.088;8.850;2023-05-10T06:32:04;16.08;;;8.68;;
67162;SDS011;54092;53.088;8.850;2023-05-10T06:34:30;13.80;;;8.70;;
67162;SDS011;54092;53.088;8.850;2023-05-10T06:36:56;16.50;;;9.50;;
67162;SDS011;54092;53.088;8.850;2023-05-10T06:39:22;15.27;;;9.73;;
67162;SDS011;54092;53.088;8.850;2023-05-10T06:41:47;13.65;;;9.02;;
67162;SDS011;54092;53.088;8.850;2023-05-10T06:44:13;17.90;;;9.25;;
67162;SDS011;54092;53.088;8.850;2023-05-10T06:46:38;15.77;;;9.55;;
67162;SDS011;54092;53.088;8.850;2023-05-10T06:49:06;15.93;;;9.73;;
67162;SDS011;54092;53.088;8.850;2023-05-10T06:51:32;16.88;;;10.13;;
67162;SDS011;54092;53.088;8.850;2023-05-10T06:53:58;16.13;;;9.32;;
67162;SDS011;54092;53.088;8.850;2023-05-10T06:56:23;16.77;;;9.38;;
67162;SDS011;54092;53.088;8.850;2023-05-10T06:58:49;17.15;;;9.45;;
67162;SDS011;54092;53.088;8.850;2023-05-10T07:01:15;15.88;;;10.00;;
67162;SDS011;54092;53.088;8.850;2023-05-10T07:03:40;15.88;;;10.00;;
67162;SDS011;54092;53.088;8.850;2023-05-10T07:06:06;16.48;;;9.73;;
67162;SDS011;54092;53.088;8.850;2023-05-10T07:08:32;16.88;;;10.68;;
67162;SDS011;54092;53.088;8.850;2023-05-10T07:11:02;17.65;;;10.23;;
67162;SDS011;54092;53.088;8.850;2023-05-10T07:13:29;17.38;;;9.98;;
67162;SDS011;54092;53.088;8.850;2023-05-10T07:15:56;16.60;;;9.48;;
67162;SDS011;54092;53.088;8.850;2023-05-10T07:18:21;21.27;;;10.48;;
67162;SDS011;54092;53.088;8.850;2023-05-10T07:20:47;16.45;;;9.63;;
67162;SDS011;54092;53.088;8.850;2023-05-10T07:23:13;17.17;;;9.80;;
67162;SDS011;54092;53.088;8.850;2023-05-10T07:25:38;16.73;;;10.25;;
67162;SDS011;54092;53.088;8.850;2023-05-10T07:28:07;18.50;;;10.70;;
67162;SDS011;54092;53.088;8.850;2023-05-10T07:30:33;19.75;;;10.90;;
67162;SDS011;54092;53.088;8.850;2023-05-10T07:32:58;20.85;;;11.20;;
67162;SDS011;54092;53.088;8.850;2023-05-10T07:35:24;18.38;;;10.77;;
67162;SDS011;54092;53.088;8.850;2023-05-10T07:37:49;18.30;;;10.82;;
67162;SDS011;54092;53.088;8.850;2023-05-10T07:40:15;19.45;;;11.32;;
67162;SDS011;54092;53.088;8.850;2023-05-10T07:42:40;19.77;;;10.77;;
67162;SDS011;54092;53.088;8.850;2023-05-10T07:45:06;21.45;;;12.77;;
67162;SDS011;54092;53.088;8.850;2023-05-10T07:47:32;20.67;;;11.75;;
67162;SDS011;54092;53.088;8.850;2023-05-10T07:49:57;19.02;;;10.90;;
67162;SDS011;54092;53.088;8.850;2023-05-10T07:52:23;18.58;;;11.25;;
67162;SDS011;54092;53.088;8.850;2023-05-10T07:54:48;17.55;;;11.50;;
67162;SDS011;54092;53.088;8.850;2023-05-10T07:57:14;17.15;;;10.93;;
67162;SDS011;54092;53.088;8.850;2023-05-10T07:59:42;15.38;;;10.23;;
67162;SDS011;54092;53.088;8.850;2023-05-10T08:02:08;17.35;;;10.55;;
67162;SDS011;54092;53.088;8.850;2023-05-10T08:04:35;17.33;;;10.43;;
67162;SDS011;54092;53.088;8.850;2023-05-10T08:07:00;16.33;;;10.30;;
67162;SDS011;54092;53.088;8.850;2023-05-10T08:09:26;13.70;;;8.90;;
67162;SDS011;54092;53.088;8.850;2023-05-10T08:11:51;15.93;;;9.07;;
67162;SDS011;54092;53.088;8.850;2023-05-10T08:14:17;13.48;;;8.25;;
67162;SDS011;54092;53.088;8.850;2023-05-10T08:16:43;13.68;;;7.95;;
67162;SDS011;54092;53.088;8.850;2023-05-10T08:19:08;11.65;;;7.63;;
67162;SDS011;54092;53.088;8.850;2023-05-10T08:21:34;11.30;;;6.70;;
67162;SDS011;54092;53.088;8.850;2023-05-10T08:23:59;9.88;;;6.00;;
67162;SDS011;54092;53.088;8.850;2023-05-10T08:26:25;8.05;;;4.40;;
67162;SDS011;54092;53.088;8.850;2023-05-10T08:28:50;7.95;;;4.65;;
67162;SDS011;54092;53.088;8.850;2023-05-10T08:31:16;7.93;;;3.92;;
67162;SDS011;54092;53.088;8.850;2023-05-10T08:33:42;8.23;;;4.25;;
67162;SDS011;54092;53.088;8.850;2023-05-10T08:36:08;8.25;;;4.30;;
67162;SDS011;54092;53.088;8.850;2023-05-10T08:38:33;8.38;;;4.35;;
67162;SDS011;54092;53.088;8.850;2023-05-10T08:40:59;8.57;;;4.10;;
67162;SDS011;54092;53.088;8.850;2023-05-10T08:43:27;8.55;;;4.35;;
67162;SDS011;54092;53.088;8.850;2023-05-10T08:45:54;8.65;;;4.50;;
67162;SDS011;54092;53.088;8.850;2023-05-10T08:48:22;8.77;;;4.63;;
67162;SDS011;54092;53.088;8.850;2023-05-10T08:50:48;8.55;;;4.90;;
67162;SDS011;54092;53.088;8.850;2023-05-10T08:53:17;9.75;;;5.47;;
67162;SDS011;54092;53.088;8.850;2023-05-10T08:55:44;10.95;;;5.28;;
67162;SDS011;54092;53.088;8.850;2023-05-10T08:58:10;9.30;;;5.47;;
67162;SDS011;54092;53.088;8.850;2023-05-10T09:00:36;11.60;;;5.68;;
67162;SDS011;54092;53.088;8.850;2023-05-10T09:03:02;9.70;;;5.13;;
67162;SDS011;54092;53.088;8.850;2023-05-10T09:05:29;9.32;;;4.65;;
67162;SDS011;54092;53.088;8.850;2023-05-10T09:07:55;8.38;;;4.70;;
67162;SDS011;54092;53.088;8.850;2023-05-10T09:10:20;10.88;;;5.25;;
67162;SDS011;54092;53.088;8.850;2023-05-10T09:12:47;7.95;;;5.10;;
67162;SDS011;54092;53.088;8.850;2023-05-10T09:15:15;8.63;;;4.35;;
67162;SDS011;54092;53.088;8.850;2023-05-10T09:17:41;6.38;;;3.38;;
67162;SDS011;54092;53.088;8.850;2023-05-10T09:20:08;4.95;;;3.05;;
67162;SDS011;54092;53.088;8.850;2023-05-10T09:22:34;6.55;;;3.13;;
67162;SDS011;54092;53.088;8.850;2023-05-10T09:25:10;5.35;;;3.15;;
67162;SDS011;54092;53.088;8.850;2023-05-10T09:27:41;5.47;;;3.10;;
67162;SDS011;54092;53.088;8.850;2023-05-10T09:30:11;5.47;;;2.88;;
67162;SDS011;54092;53.088;8.850;2023-05-10T09:32:41;4.90;;;2.53;;
67162;SDS011;54092;53.088;8.850;2023-05-10T09:37:42;6.25;;;3.35;;
67162;SDS011;54092;53.088;8.850;2023-05-10T09:40:14;7.35;;;3.67;;
67162;SDS011;54092;53.088;8.850;2023-05-10T09:42:42;6.88;;;3.72;;
67162;SDS011;54092;53.088;8.850;2023-05-10T09:45:15;7.72;;;4.10;;
67162;SDS011;54092;53.088;8.850;2023-05-10T09:47:41;7.30;;;4.25;;
67162;SDS011;54092;53.088;8.850;2023-05-10T09:50:07;7.45;;;4.60;;
67162;SDS011;54092;53.088;8.850;2023-05-10T09:52:48;7.93;;;4.80;;
67162;SDS011;54092;53.088;8.850;2023-05-10T09:55:16;8.35;;;4.97;;
67162;SDS011;54092;53.088;8.850;2023-05-10T09:57:43;9.10;;;5.03;;
67162;SDS011;54092;53.088;8.850;2023-05-10T10:00:09;7.55;;;4.78;;
67162;SDS011;54092;53.088;8.850;2023-05-10T10:02:35;8.85;;;5.13;;
67162;SDS011;54092;53.088;8.850;2023-05-10T10:05:01;8.10;;;4.93;;
67162;SDS011;54092;53.088;8.850;2023-05-10T10:07:28;7.18;;;4.63;;
67162;SDS011;54092;53.088;8.850;2023-05-10T10:09:54;10.13;;;4.85;;
67162;SDS011;54092;53.088;8.850;2023-05-10T10:12:19;10.32;;;5.93;;
67162;SDS011;54092;53.088;8.850;2023-05-10T10:14:48;11.70;;;5.75;;
67162;SDS011;54092;53.088;8.850;2023-05-10T10:17:15;7.70;;;5.07;;
67162;SDS011;54092;53.088;8.850;2023-05-10T10:19:41;7.97;;;4.93;;
67162;SDS011;54092;53.088;8.850;2023-05-10T10:22:06;7.43;;;4.47;;
67162;SDS011;54092;53.088;8.850;2023-05-10T10:24:32;7.82;;;4.95;;
67162;SDS011;54092;53.088;8.850;2023-05-10T10:27:04;5.35;;;3.15;;
67162;SDS011;54092;53.088;8.850;2023-05-10T10:30:06;7.40;;;3.15;;
67162;SDS011;54092;53.088;8.850;2023-05-10T10:32:46;5.95;;;3.13;;
67162;SDS011;54092;53.088;8.850;2023-05-10T10:35:34;5.35;;;3.33;;
67162;SDS011;54092;53.088;8.850;2023-05-10T10:38:01;5.43;;;3.05;;
67162;SDS011;54092;53.088;8.850;2023-05-10T10:40:27;5.93;;;3.25;;
67162;SDS011;54092;53.088;8.850;2023-05-10T10:42:55;8.00;;;3.50;;
67162;SDS011;54092;53.088;8.850;2023-05-10T10:45:22;7.22;;;4.00;;
67162;SDS011;54092;53.088;8.850;2023-05-10T10:47:49;6.28;;;3.95;;
67162;SDS011;54092;53.088;8.850;2023-05-10T10:50:44;6.95;;;3.55;;
67162;SDS011;54092;53.088;8.850;2023-05-10T10:53:11;7.53;;;3.63;;
67162;SDS011;54092;53.088;8.850;2023-05-10T10:55:44;6.22;;;3.30;;
67162;SDS011;54092;53.088;8.850;2023-05-10T10:58:12;7.50;;;3.85;;
67162;SDS011;54092;53.088;8.850;2023-05-10T11:01:14;6.30;;;3.50;;
67162;SDS011;54092;53.088;8.850;2023-05-10T11:06:34;6.65;;;3.10;;
67162;SDS011;54092;53.088;8.850;2023-05-10T11:09:07;5.30;;;3.17;;
67162;SDS011;54092;53.088;8.850;2023-05-10T11:11:34;6.75;;;2.92;;
67162;SDS011;54092;53.088;8.850;2023-05-10T11:14:04;4.68;;;2.78;;
67162;SDS011;54092;53.088;8.850;2023-05-10T11:16:44;5.20;;;2.83;;
67162;SDS011;54092;53.088;8.850;2023-05-10T11:19:11;4.97;;;2.70;;
67162;SDS011;54092;53.088;8.850;2023-05-10T11:21:47;5.50;;;2.80;;
67162;SDS011;54092;53.088;8.850;2023-05-10T11:24:15;5.13;;;2.95;;
67162;SDS011;54092;53.088;8.850;2023-05-10T11:26:42;5.95;;;3.28;;
67162;SDS011;54092;53.088;8.850;2023-05-10T11:29:08;6.45;;;3.35;;
67162;SDS011;54092;53.088;8.850;2023-05-10T11:31:34;5.45;;;3.40;;
67162;SDS011;54092;53.088;8.850;2023-05-10T11:34:00;10.45;;;3.70;;
67162;SDS011;54092;53.088;8.850;2023-05-10T11:36:32;8.10;;;4.13;;
67162;SDS011;54092;53.088;8.850;2023-05-10T11:38:59;11.07;;;4.00;;
67162;SDS011;54092;53.088;8.850;2023-05-10T11:41:26;7.85;;;4.30;;
67162;SDS011;54092;53.088;8.850;2023-05-10T11:43:53;6.60;;;4.25;;
67162;SDS011;54092;53.088;8.850;2023-05-10T11:46:20;5.68;;;3.67;;
67162;SDS011;54092;53.088;8.850;2023-05-10T11:48:47;5.90;;;3.60;;
67162;SDS011;54092;53.088;8.850;2023-05-10T11:51:19;8.75;;;3.47;;
67162;SDS011;54092;53.088;8.850;2023-05-10T11:53:46;5.28;;;3.33;;
67162;SDS011;54092;53.088;8.850;2023-05-10T11:56:11;6.07;;;3.10;;
67162;SDS011;54092;53.088;8.850;2023-05-10T11:58:37;4.57;;;3.00;;
67162;SDS011;54092;53.088;8.850;2023-05-10T12:01:04;6.10;;;3.10;;
67162;SDS011;54092;53.088;8.850;2023-05-10T12:03:31;5.43;;;2.88;;
67162;SDS011;54092;53.088;8.850;2023-05-10T12:05:57;4.20;;;2.45;;
67162;SDS011;54092;53.088;8.850;2023-05-10T12:08:26;3.30;;;2.00;;
67162;SDS011;54092;53.088;8.850;2023-05-10T12:10:53;3.40;;;2.17;;
67162;SDS011;54092;53.088;8.850;2023-05-10T12:13:28;2.95;;;1.80;;
67162;SDS011;54092;53.088;8.850;2023-05-10T12:15:54;4.10;;;1.80;;
67162;SDS011;54092;53.088;8.850;2023-05-10T12:18:22;3.50;;;1.88;;
67162;SDS011;54092;53.088;8.850;2023-05-10T12:20:52;3.75;;;2.20;;
67162;SDS011;54092;53.088;8.850;2023-05-10T12:23:18;2.85;;;1.80;;
67162;SDS011;54092;53.088;8.850;2023-05-10T12:25:45;5.07;;;2.08;;
67162;SDS011;54092;53.088;8.850;2023-05-10T12:28:11;3.08;;;1.95;;
67162;SDS011;54092;53.088;8.850;2023-05-10T12:30:37;3.33;;;2.00;;
67162;SDS011;54092;53.088;8.850;2023-05-10T12:33:10;3.75;;;2.40;;
67162;SDS011;54092;53.088;8.850;2023-05-10T12:35:50;3.00;;;2.00;;
67162;SDS011;54092;53.088;8.850;2023-05-10T12:38:26;3.00;;;2.00;;
67162;SDS011;54092;53.088;8.850;2023-05-10T12:40:55;3.40;;;1.85;;
67162;SDS011;54092;53.088;8.850;2023-05-10T12:43:21;2.65;;;1.70;;
67162;SDS011;54092;53.088;8.850;2023-05-10T12:45:47;1.98;;;1.70;;
67162;SDS011;54092;53.088;8.850;2023-05-10T12:48:13;2.42;;;1.70;;
67162;SDS011;54092;53.088;8.850;2023-05-10T12:50:40;2.45;;;1.77;;
67162;SDS011;54092;53.088;8.850;2023-05-10T12:53:05;2.28;;;1.83;;
67162;SDS011;54092;53.088;8.850;2023-05-10T12:55:31;3.22;;;1.80;;
67162;SDS011;54092;53.088;8.850;2023-05-10T12:57:56;2.67;;;1.77;;
67162;SDS011;54092;53.088;8.850;2023-05-10T13:00:21;3.15;;;2.10;;
67162;SDS011;54092;53.088;8.850;2023-05-10T13:02:47;4.00;;;1.95;;
67162;SDS011;54092;53.088;8.850;2023-05-10T13:05:12;3.33;;;2.05;;
67162;SDS011;54092;53.088;8.850;2023-05-10T13:07:38;5.55;;;2.55;;
67162;SDS011;54092;53.088;8.850;2023-05-10T13:10:04;5.22;;;2.90;;
67162;SDS011;54092;53.088;8.850;2023-05-10T13:12:31;4.78;;;2.42;;
67162;SDS011;54092;53.088;8.850;2023-05-10T13:14:57;4.80;;;2.50;;
67162;SDS011;54092;53.088;8.850;2023-05-10T13:17:22;3.90;;;2.38;;
67162;SDS011;54092;53.088;8.850;2023-05-10T13:19:50;6.80;;;2.90;;
67162;SDS011;54092;53.088;8.850;2023-05-10T13:22:15;6.18;;;3.78;;
67162;SDS011;54092;53.088;8.850;2023-05-10T13:24:41;5.80;;;3.13;;
67162;SDS011;54092;53.088;8.850;2023-05-10T13:27:06;6.32;;;3.80;;
67162;SDS011;54092;53.088;8.850;2023-05-10T13:29:32;6.10;;;3.60;;
67162;SDS011;54092;53.088;8.850;2023-05-10T13:31:58;9.25;;;4.43;;
67162;SDS011;54092;53.088;8.850;2023-05-10T13:34:24;6.45;;;4.13;;
67162;SDS011;54092;53.088;8.850;2023-05-10T13:36:50;7.40;;;3.95;;
67162;SDS011;54092;53.088;8.850;2023-05-10T13:39:15;6.60;;;4.25;;
67162;SDS011;54092;53.088;8.850;2023-05-10T13:41:41;8.48;;;4.10;;
67162;SDS011;54092;53.088;8.850;2023-05-10T13:44:07;7.45;;;4.45;;
67162;SDS011;54092;53.088;8.850;2023-05-10T13:46:32;11.00;;;3.80;;
67162;SDS011;54092;53.088;8.850;2023-05-10T13:48:58;5.38;;;3.40;;
67162;SDS011;54092;53.088;8.850;2023-05-10T13:51:23;5.68;;;3.42;;
67162;SDS011;54092;53.088;8.850;2023-05-10T13:53:49;5.55;;;3.38;;
67162;SDS011;54092;53.088;8.850;2023-05-10T13:56:14;5.30;;;3.50;;
67162;SDS011;54092;53.088;8.850;2023-05-10T13:58:40;6.25;;;3.20;;
67162;SDS011;54092;53.088;8.850;2023-05-10T14:01:06;5.25;;;2.92;;
67162;SDS011;54092;53.088;8.850;2023-05-10T14:03:31;7.07;;;3.25;;
67162;SDS011;54092;53.088;8.850;2023-05-10T14:05:57;5.70;;;3.35;;
67162;SDS011;54092;53.088;8.850;2023-05-10T14:08:23;6.05;;;3.20;;
67162;SDS011;54092;53.088;8.850;2023-05-10T14:10:48;5.40;;;3.13;;
67162;SDS011;54092;53.088;8.850;2023-05-10T14:13:15;5.85;;;3.55;;
67162;SDS011;54092;53.088;8.850;2023-05-10T14:15:41;5.60;;;3.15;;
67162;SDS011;54092;53.088;8.850;2023-05-10T14:18:06;5.75;;;3.58;;
67162;SDS011;54092;53.088;8.850;2023-05-10T14:20:32;5.88;;;3.50;;
67162;SDS011;54092;53.088;8.850;2023-05-10T14:22:58;5.65;;;3.50;;
67162;SDS011;54092;53.088;8.850;2023-05-10T14:25:25;5.80;;;3.80;;
67162;SDS011;54092;53.088;8.850;2023-05-10T14:27:50;5.88;;;3.70;;
67162;SDS011;54092;53.088;8.850;2023-05-10T14:30:16;6.85;;;3.88;;
67162;SDS011;54092;53.088;8.850;2023-05-10T14:32:41;5.82;;;3.30;;
67162;SDS011;54092;53.088;8.850;2023-05-10T14:35:07;6.63;;;3.53;;
67162;SDS011;54092;53.088;8.850;2023-05-10T14:37:33;6.35;;;3.55;;
67162;SDS011;54092;53.088;8.850;2023-05-10T14:39:59;6.05;;;3.42;;
67162;SDS011;54092;53.088;8.850;2023-05-10T14:42:24;6.05;;;3.63;;
67162;SDS011;54092;53.088;8.850;2023-05-10T14:44:50;7.15;;;3.30;;
67162;SDS011;54092;53.088;8.850;2023-05-10T14:47:16;8.07;;;3.80;;
67162;SDS011;54092;53.088;8.850;2023-05-10T14:49:41;7.18;;;3.70;;
67162;SDS011;54092;53.088;8.850;2023-05-10T14:52:07;5.88;;;3.10;;
67162;SDS011;54092;53.088;8.850;2023-05-10T14:54:32;5.45;;;3.30;;
67162;SDS011;54092;53.088;8.850;2023-05-10T14:56:58;5.63;;;3.08;;
67162;SDS011;54092;53.088;8.850;2023-05-10T14:59:25;5.53;;;3.10;;
67162;SDS011;54092;53.088;8.850;2023-05-10T15:01:50;6.07;;;3.08;;
67162;SDS011;54092;53.088;8.850;2023-05-10T15:04:16;7.32;;;3.25;;